createdAt,value
2023-05-08T00:01:40.951Z,102060.88
2023-05-08T00:06:42.428Z,102057.22
2023-05-08T00:11:43.920Z,102062.38
2023-05-08T00:16:45.584Z,102071.28
2023-05-08T00:21:47.278Z,102063.53
2023-05-08T00:26:48.824Z,102070.03
2023-05-08T00:31:50.340Z,102068.13
2023-05-08T00:36:52.137Z,102072.91
2023-05-08T00:41:53.592Z,102074.25
2023-05-08T00:46:55.289Z,102080.41
2023-05-08T00:51:57.481Z,102067.31
2023-05-08T00:57:00.916Z,102072.44
2023-05-08T01:02:02.735Z,102072.81
2023-05-08T01:07:04.450Z,102083.78
2023-05-08T01:12:21.207Z,102089.44
2023-05-08T01:17:42.925Z,102086.13
2023-05-08T01:23:02.867Z,102082.53
2023-05-08T01:28:31.047Z,102071.72
2023-05-08T01:33:40.968Z,102074.59
2023-05-08T01:39:03.535Z,102087.47
2023-05-08T01:44:13.728Z,102080.75
2023-05-08T01:49:25.419Z,102084.53
2023-05-08T01:54:28.764Z,102086.22
2023-05-08T01:59:32.707Z,102088.44
2023-05-08T02:04:34.927Z,102084.84
2023-05-08T02:09:37.869Z,102092.91
2023-05-08T02:14:41.996Z,102091.00
2023-05-08T02:19:44.596Z,102100.16
2023-05-08T02:24:46.619Z,102099.69
2023-05-08T02:29:49.187Z,102092.28
2023-05-08T02:35:02.631Z,102092.47
2023-05-08T02:40:08.172Z,102090.59
2023-05-08T02:45:12.158Z,102090.53
2023-05-08T02:50:21.866Z,102087.75
2023-05-08T02:55:41.869Z,102088.38
2023-05-08T03:01:06.741Z,102077.19
2023-05-08T03:06:13.382Z,102060.50
2023-05-08T03:11:22.640Z,102062.00
2023-05-08T03:16:26.667Z,102064.16
2023-05-08T03:21:30.505Z,102057.44
2023-05-08T03:26:32.334Z,102056.72
2023-05-08T03:31:35.329Z,102063.09
2023-05-08T03:36:36.974Z,102057.91
2023-05-08T03:41:38.583Z,102065.44
2023-05-08T03:46:42.263Z,102059.50
2023-05-08T03:51:44.722Z,102065.34
2023-05-08T03:56:47.865Z,102064.22
2023-05-08T04:01:55.272Z,102063.53
2023-05-08T04:07:03.676Z,102062.13
2023-05-08T04:12:13.770Z,102069.28
2023-05-08T04:17:22.564Z,102079.53
2023-05-08T04:22:27.063Z,102073.19
2023-05-08T04:27:29.288Z,102074.75
2023-05-08T04:32:31.922Z,102078.88
2023-05-08T04:37:33.596Z,102080.00
2023-05-08T04:42:36.676Z,102081.41
2023-05-08T04:47:38.284Z,102088.44
2023-05-08T04:52:39.856Z,102092.03
2023-05-08T04:57:41.450Z,102101.56
2023-05-08T05:02:43.031Z,102108.44
2023-05-08T05:07:44.583Z,102110.72
2023-05-08T05:12:46.133Z,102106.66
2023-05-08T05:17:47.685Z,102115.25
2023-05-08T05:22:49.364Z,102123.66
2023-05-08T05:27:50.959Z,102119.59
2023-05-08T05:32:52.485Z,102122.47
2023-05-08T05:37:54.227Z,102126.97
2023-05-08T05:42:55.756Z,102132.13
2023-05-08T05:47:57.549Z,102128.88
2023-05-08T05:52:59.044Z,102125.38
2023-05-08T05:58:00.500Z,102132.28
2023-05-08T06:03:03.014Z,102129.69
2023-05-08T06:08:05.765Z,102131.97
2023-05-08T06:13:08.917Z,102139.47
2023-05-08T06:18:10.517Z,102142.22
2023-05-08T06:23:12.426Z,102130.88
2023-05-08T06:28:13.951Z,102141.75
2023-05-08T06:33:15.587Z,102142.28
2023-05-08T06:38:17.182Z,102145.59
2023-05-08T06:43:18.720Z,102141.59
2023-05-08T06:48:20.761Z,102140.41
2023-05-08T06:53:22.345Z,102145.72
2023-05-08T06:58:23.876Z,102143.03
2023-05-08T07:03:25.623Z,102143.38
2023-05-08T07:08:27.176Z,102141.03
2023-05-08T07:13:28.845Z,102142.44
2023-05-08T07:18:30.678Z,102144.00
2023-05-08T07:23:32.221Z,102132.84
2023-05-08T07:28:33.935Z,102130.75
2023-05-08T07:33:35.554Z,102128.91
2023-05-08T07:38:37.132Z,102122.22
2023-05-08T07:43:39.198Z,102123.28
2023-05-08T07:48:40.698Z,102128.81
2023-05-08T07:53:42.512Z,102122.47
2023-05-08T07:58:45.996Z,102128.69
2023-05-08T08:03:47.921Z,102130.06
2023-05-08T08:08:49.535Z,102129.16
2023-05-08T08:13:51.094Z,102129.75
2023-05-08T08:18:55.587Z,102125.91
2023-05-08T08:23:57.341Z,102135.81
2023-05-08T08:28:58.870Z,102128.88
2023-05-08T08:34:00.434Z,102120.84
2023-05-08T08:39:02.015Z,102112.50
2023-05-08T08:44:03.642Z,102121.78
2023-05-08T08:49:09.712Z,102117.53
2023-05-08T08:54:17.437Z,102128.22
2023-05-08T08:59:19.363Z,102131.41
2023-05-08T09:04:21.000Z,102133.56
2023-05-08T09:09:23.428Z,102127.53
2023-05-08T09:14:26.633Z,102123.63
2023-05-08T09:19:29.248Z,102130.75
2023-05-08T09:24:59.752Z,102137.13
2023-05-08T09:30:05.848Z,102129.78
2023-05-08T09:35:09.074Z,102130.50
2023-05-08T09:40:19.212Z,102120.91
2023-05-08T09:45:31.735Z,102135.16
2023-05-08T09:50:34.080Z,102130.91
2023-05-08T09:55:48.827Z,102128.22
2023-05-08T10:00:51.568Z,102131.97
2023-05-08T10:05:53.151Z,102134.31
2023-05-08T10:10:54.815Z,102138.53
2023-05-08T10:15:56.902Z,102131.72
2023-05-08T10:21:01.553Z,102127.34
2023-05-08T10:26:09.913Z,102129.25
2023-05-08T10:31:14.469Z,102127.41
2023-05-08T10:36:17.110Z,102123.03
2023-05-08T10:41:19.911Z,102134.59
2023-05-08T10:47:05.808Z,102130.38
2023-05-08T10:52:12.304Z,102131.59
2023-05-08T10:57:15.003Z,102130.78
2023-05-08T11:02:18.291Z,102122.13
2023-05-08T11:07:20.031Z,102106.81
2023-05-08T11:12:26.259Z,102109.81
2023-05-08T11:17:28.837Z,102116.31
2023-05-08T11:22:34.512Z,102111.09
2023-05-08T11:27:49.133Z,102108.03
2023-05-08T11:33:06.367Z,102097.81
2023-05-08T11:38:11.808Z,102100.00
2023-05-08T11:43:58.331Z,102096.38
2023-05-08T11:49:01.649Z,102090.91
2023-05-08T11:54:03.876Z,102089.84
2023-05-08T11:59:06.428Z,102090.25
2023-05-08T12:04:13.297Z,102081.97
2023-05-08T12:09:15.934Z,102085.28
2023-05-08T12:14:18.479Z,102086.22
2023-05-08T12:19:20.037Z,102101.66
2023-05-08T12:24:25.483Z,102087.47
2023-05-08T12:29:27.046Z,102076.06
2023-05-08T12:34:28.894Z,102079.69
2023-05-08T12:39:35.665Z,102071.47
2023-05-08T12:44:37.179Z,102077.94
2023-05-08T12:49:38.793Z,102065.81
2023-05-08T12:54:52.305Z,102065.31
2023-05-08T13:00:04.842Z,102055.63
2023-05-08T13:05:06.731Z,102060.31
2023-05-08T13:10:09.130Z,102056.69
2023-05-08T13:15:10.935Z,102058.19
2023-05-08T13:20:12.584Z,102045.66
2023-05-08T13:25:14.622Z,102045.22
2023-05-08T13:30:16.717Z,102048.78
2023-05-08T13:35:19.460Z,102052.41
2023-05-08T13:40:21.080Z,102040.38
2023-05-08T13:45:22.589Z,102039.97
2023-05-08T13:50:24.147Z,102040.38
2023-05-08T13:55:25.879Z,102040.28
2023-05-08T14:00:28.214Z,102032.38
2023-05-08T14:05:29.879Z,102024.78
2023-05-08T14:10:31.395Z,102029.53
2023-05-08T14:15:37.306Z,102029.06
2023-05-08T14:20:39.305Z,102024.59
2023-05-08T14:25:40.912Z,102021.00
2023-05-08T14:30:42.484Z,102012.84
2023-05-08T14:35:43.961Z,102008.97
2023-05-08T14:40:45.476Z,102002.78
2023-05-08T14:45:47.021Z,102002.63
2023-05-08T14:50:48.578Z,101998.88
2023-05-08T14:55:50.439Z,101994.41
2023-05-08T15:00:52.167Z,101987.56
2023-05-08T15:05:53.771Z,101998.28
2023-05-08T15:10:55.706Z,101988.53
2023-05-08T15:15:58.375Z,101992.31
2023-05-08T15:20:59.896Z,101986.41
2023-05-08T15:26:02.633Z,101980.00
2023-05-08T15:31:04.908Z,101982.19
2023-05-08T15:36:06.614Z,101990.75
2023-05-08T15:41:12.134Z,101983.13
2023-05-08T15:46:15.489Z,101982.31
2023-05-08T15:51:17.365Z,101988.28
2023-05-08T15:56:24.584Z,101995.56
2023-05-08T16:01:26.261Z,102010.03
2023-05-08T16:06:27.775Z,102018.19
2023-05-08T16:11:32.770Z,102025.81
2023-05-08T16:16:34.331Z,102017.41
2023-05-08T16:21:36.089Z,102027.00
2023-05-08T16:26:37.624Z,102013.88
2023-05-08T16:31:39.205Z,102008.97
2023-05-08T16:36:40.701Z,102001.16
2023-05-08T16:41:42.319Z,102006.84
2023-05-08T16:46:44.110Z,101995.25
2023-05-08T16:51:45.716Z,101989.06
2023-05-08T16:56:47.236Z,101982.69
2023-05-08T17:01:48.933Z,101976.31
2023-05-08T17:06:50.459Z,101973.75
2023-05-08T17:11:52.047Z,101974.44
2023-05-08T17:16:53.570Z,101958.72
2023-05-08T17:21:55.692Z,101973.16
2023-05-08T17:26:58.654Z,101974.22
2023-05-08T17:32:00.327Z,101972.50
2023-05-08T17:37:01.880Z,101976.19
2023-05-08T17:42:03.421Z,101981.59
2023-05-08T17:47:04.967Z,101968.88
2023-05-08T17:52:06.560Z,101978.94
2023-05-08T17:57:08.234Z,101979.00
2023-05-08T18:02:09.832Z,101977.63
2023-05-08T18:07:11.359Z,101975.22
2023-05-08T18:12:12.918Z,101970.25
2023-05-08T18:17:19.209Z,101965.13
2023-05-08T18:22:20.873Z,101966.22
2023-05-08T18:27:22.709Z,101961.59
2023-05-08T18:32:24.270Z,101953.34
2023-05-08T18:37:25.865Z,101947.69
2023-05-08T18:42:27.337Z,101953.13
2023-05-08T18:47:28.953Z,101948.69
2023-05-08T18:52:30.497Z,101951.16
2023-05-08T18:57:31.998Z,101951.75
2023-05-08T19:02:33.666Z,101956.53
2023-05-08T19:07:35.295Z,101960.38
2023-05-08T19:12:36.823Z,101943.03
2023-05-08T19:17:38.413Z,101944.09
2023-05-08T19:22:39.933Z,101952.72
2023-05-08T19:27:41.662Z,101951.16
2023-05-08T19:32:43.233Z,101967.69
2023-05-08T19:37:45.077Z,101971.31
2023-05-08T19:42:46.617Z,101983.69
2023-05-08T19:47:52.062Z,101980.41
2023-05-08T19:52:53.726Z,101983.00
2023-05-08T19:57:55.228Z,101978.00
2023-05-08T20:02:56.924Z,101990.53
2023-05-08T20:07:58.566Z,101980.91
2023-05-08T20:13:00.651Z,101980.53
2023-05-08T20:18:02.333Z,101963.00
2023-05-08T20:23:04.602Z,101967.16
2023-05-08T20:28:06.194Z,101962.50
2023-05-08T20:33:07.759Z,101955.63
2023-05-08T20:38:09.772Z,101965.09
2023-05-08T20:43:11.381Z,101973.69
2023-05-08T20:48:12.929Z,101972.31
2023-05-08T20:53:14.512Z,101972.34
2023-05-08T20:58:16.095Z,101969.06
2023-05-08T21:03:17.634Z,101952.94
2023-05-08T21:08:26.436Z,101951.38
2023-05-08T21:13:28.189Z,101939.00
2023-05-08T21:18:29.700Z,101920.59
2023-05-08T21:23:31.239Z,101913.72
2023-05-08T21:28:32.734Z,101914.22
2023-05-08T21:33:34.388Z,101913.00
2023-05-08T21:38:36.025Z,101914.88
2023-05-08T21:43:37.627Z,101908.69
2023-05-08T21:48:39.178Z,101898.38
2023-05-08T21:53:40.797Z,101888.59
2023-05-08T21:58:42.495Z,101883.44
2023-05-08T22:03:44.040Z,101882.91
2023-05-08T22:08:46.061Z,101872.78
2023-05-08T22:13:47.575Z,101868.16
2023-05-08T22:18:49.171Z,101864.53
2023-05-08T22:23:50.673Z,101852.53
2023-05-08T22:28:52.393Z,101845.13
2023-05-08T22:33:53.951Z,101843.72
2023-05-08T22:38:55.775Z,101833.09
2023-05-08T22:43:57.367Z,101836.88
2023-05-08T22:48:59.999Z,101826.75
2023-05-08T22:54:01.528Z,101824.50
2023-05-08T22:59:02.991Z,101819.19
2023-05-08T23:04:04.594Z,101809.25
2023-05-08T23:09:06.847Z,101796.56
2023-05-08T23:14:08.371Z,101792.06
2023-05-08T23:19:10.119Z,101774.06
2023-05-08T23:24:11.663Z,101776.47
2023-05-08T23:29:13.187Z,101758.97
2023-05-08T23:34:14.645Z,101746.63
2023-05-08T23:39:17.267Z,101741.78
2023-05-08T23:44:19.115Z,101735.97
2023-05-08T23:49:20.759Z,101720.16
2023-05-08T23:54:22.201Z,101724.97
2023-05-08T23:59:23.674Z,101723.75
